sensor_id;sensor_type;location;lat;lon;timestamp;P1;durP1;ratioP1;P2;durP2;ratioP2
16440;SDS011;8330;-33.858;151.184;2023-04-26T00:01:02;14.90;;;3.72;;
16440;SDS011;8330;-33.858;151.184;2023-04-26T00:03:33;19.38;;;4.45;;
16440;SDS011;8330;-33.858;151.184;2023-04-26T00:06:05;13.60;;;4.40;;
16440;SDS011;8330;-33.858;151.184;2023-04-26T00:08:39;19.90;;;5.30;;
16440;SDS011;8330;-33.858;151.184;2023-04-26T00:11:13;12.70;;;3.63;;
16440;SDS011;8330;-33.858;151.184;2023-04-26T00:13:46;18.10;;;4.53;;
16440;SDS011;8330;-33.858;151.184;2023-04-26T00:16:17;13.05;;;4.18;;
16440;SDS011;8330;-33.858;151.184;2023-04-26T00:18:48;14.55;;;4.07;;
16440;SDS011;8330;-33.858;151.184;2023-04-26T00:21:19;17.20;;;4.20;;
16440;SDS011;8330;-33.858;151.184;2023-04-26T00:23:50;12.98;;;3.40;;
16440;SDS011;8330;-33.858;151.184;2023-04-26T00:26:23;11.90;;;3.60;;
16440;SDS011;8330;-33.858;151.184;2023-04-26T00:28:55;15.93;;;3.80;;
16440;SDS011;8330;-33.858;151.184;2023-04-26T00:31:26;16.13;;;4.03;;
16440;SDS011;8330;-33.858;151.184;2023-04-26T00:33:57;16.05;;;3.80;;
16440;SDS011;8330;-33.858;151.184;2023-04-26T00:36:30;11.18;;;3.35;;
16440;SDS011;8330;-33.858;151.184;2023-04-26T00:39:01;15.98;;;4.18;;
16440;SDS011;8330;-33.858;151.184;2023-04-26T00:41:35;17.65;;;4.07;;
16440;SDS011;8330;-33.858;151.184;2023-04-26T00:44:06;13.32;;;3.60;;
16440;SDS011;8330;-33.858;151.184;2023-04-26T00:46:37;11.35;;;4.00;;
16440;SDS011;8330;-33.858;151.184;2023-04-26T00:49:11;13.95;;;3.25;;
16440;SDS011;8330;-33.858;151.184;2023-04-26T00:51:45;11.45;;;3.47;;
16440;SDS011;8330;-33.858;151.184;2023-04-26T00:54:16;13.00;;;3.60;;
16440;SDS011;8330;-33.858;151.184;2023-04-26T00:56:51;11.60;;;3.40;;
16440;SDS011;8330;-33.858;151.184;2023-04-26T00:59:22;9.77;;;2.80;;
16440;SDS011;8330;-33.858;151.184;2023-04-26T01:01:54;12.70;;;2.92;;
16440;SDS011;8330;-33.858;151.184;2023-04-26T01:04:25;6.15;;;1.95;;
16440;SDS011;8330;-33.858;151.184;2023-04-26T01:06:56;13.10;;;2.58;;
16440;SDS011;8330;-33.858;151.184;2023-04-26T01:09:29;7.03;;;2.15;;
16440;SDS011;8330;-33.858;151.184;2023-04-26T01:12:03;8.65;;;2.58;;
16440;SDS011;8330;-33.858;151.184;2023-04-26T01:14:36;9.68;;;2.50;;
16440;SDS011;8330;-33.858;151.184;2023-04-26T01:17:09;6.60;;;2.20;;
16440;SDS011;8330;-33.858;151.184;2023-04-26T01:19:46;7.97;;;2.00;;
16440;SDS011;8330;-33.858;151.184;2023-04-26T01:22:17;6.05;;;2.10;;
16440;SDS011;8330;-33.858;151.184;2023-04-26T01:24:51;13.70;;;2.67;;
16440;SDS011;8330;-33.858;151.184;2023-04-26T01:27:24;8.00;;;1.92;;
16440;SDS011;8330;-33.858;151.184;2023-04-26T01:29:55;8.38;;;2.20;;
16440;SDS011;8330;-33.858;151.184;2023-04-26T01:32:29;7.90;;;2.05;;
16440;SDS011;8330;-33.858;151.184;2023-04-26T01:35:00;6.90;;;2.50;;
16440;SDS011;8330;-33.858;151.184;2023-04-26T01:37:32;7.65;;;2.08;;
16440;SDS011;8330;-33.858;151.184;2023-04-26T01:40:06;9.25;;;2.22;;
16440;SDS011;8330;-33.858;151.184;2023-04-26T01:42:37;7.97;;;1.90;;
16440;SDS011;8330;-33.858;151.184;2023-04-26T01:45:09;8.27;;;2.15;;
16440;SDS011;8330;-33.858;151.184;2023-04-26T01:47:40;8.73;;;2.28;;
16440;SDS011;8330;-33.858;151.184;2023-04-26T01:50:11;12.55;;;2.20;;
16440;SDS011;8330;-33.858;151.184;2023-04-26T01:52:42;7.45;;;1.90;;
16440;SDS011;8330;-33.858;151.184;2023-04-26T01:55:15;5.43;;;1.95;;
16440;SDS011;8330;-33.858;151.184;2023-04-26T01:57:46;7.53;;;2.22;;
16440;SDS011;8330;-33.858;151.184;2023-04-26T02:00:18;8.48;;;2.03;;
16440;SDS011;8330;-33.858;151.184;2023-04-26T02:02:49;8.45;;;2.45;;
16440;SDS011;8330;-33.858;151.184;2023-04-26T02:05:23;8.23;;;1.73;;
16440;SDS011;8330;-33.858;151.184;2023-04-26T02:07:54;6.80;;;2.03;;
16440;SDS011;8330;-33.858;151.184;2023-04-26T02:10:27;6.43;;;1.85;;
16440;SDS011;8330;-33.858;151.184;2023-04-26T02:12:58;10.02;;;2.17;;
16440;SDS011;8330;-33.858;151.184;2023-04-26T02:15:29;11.02;;;2.10;;
16440;SDS011;8330;-33.858;151.184;2023-04-26T02:18:00;10.13;;;2.00;;
16440;SDS011;8330;-33.858;151.184;2023-04-26T02:20:32;8.07;;;2.00;;
16440;SDS011;8330;-33.858;151.184;2023-04-26T02:23:03;9.80;;;2.03;;
16440;SDS011;8330;-33.858;151.184;2023-04-26T02:25:36;7.47;;;2.13;;
16440;SDS011;8330;-33.858;151.184;2023-04-26T02:28:07;7.80;;;1.73;;
16440;SDS011;8330;-33.858;151.184;2023-04-26T02:30:39;10.00;;;1.90;;
16440;SDS011;8330;-33.858;151.184;2023-04-26T02:33:10;9.57;;;2.13;;
16440;SDS011;8330;-33.858;151.184;2023-04-26T02:35:44;9.63;;;1.88;;
16440;SDS011;8330;-33.858;151.184;2023-04-26T02:38:15;7.85;;;1.83;;
16440;SDS011;8330;-33.858;151.184;2023-04-26T02:40:50;7.63;;;1.90;;
16440;SDS011;8330;-33.858;151.184;2023-04-26T02:43:28;11.27;;;2.42;;
16440;SDS011;8330;-33.858;151.184;2023-04-26T02:45:59;8.23;;;1.80;;
16440;SDS011;8330;-33.858;151.184;2023-04-26T02:48:30;5.68;;;1.50;;
16440;SDS011;8330;-33.858;151.184;2023-04-26T02:51:01;5.07;;;1.70;;
16440;SDS011;8330;-33.858;151.184;2023-04-26T02:53:32;5.60;;;1.50;;
16440;SDS011;8330;-33.858;151.184;2023-04-26T02:56:05;4.63;;;1.30;;
16440;SDS011;8330;-33.858;151.184;2023-04-26T02:58:36;6.63;;;1.70;;
16440;SDS011;8330;-33.858;151.184;2023-04-26T03:01:09;4.80;;;1.15;;
16440;SDS011;8330;-33.858;151.184;2023-04-26T03:03:41;4.40;;;1.27;;
16440;SDS011;8330;-33.858;151.184;2023-04-26T03:06:12;4.70;;;1.40;;
16440;SDS011;8330;-33.858;151.184;2023-04-26T03:08:43;7.20;;;1.70;;
16440;SDS011;8330;-33.858;151.184;2023-04-26T03:11:16;5.80;;;1.40;;
16440;SDS011;8330;-33.858;151.184;2023-04-26T03:13:47;6.97;;;1.58;;
16440;SDS011;8330;-33.858;151.184;2023-04-26T03:16:18;3.17;;;1.40;;
16440;SDS011;8330;-33.858;151.184;2023-04-26T03:18:51;6.75;;;1.73;;
16440;SDS011;8330;-33.858;151.184;2023-04-26T03:21:22;7.20;;;1.67;;
16440;SDS011;8330;-33.858;151.184;2023-04-26T03:23:53;5.65;;;1.27;;
16440;SDS011;8330;-33.858;151.184;2023-04-26T03:26:27;5.90;;;1.50;;
16440;SDS011;8330;-33.858;151.184;2023-04-26T03:28:58;6.10;;;1.55;;
16440;SDS011;8330;-33.858;151.184;2023-04-26T03:31:30;5.70;;;1.45;;
16440;SDS011;8330;-33.858;151.184;2023-04-26T03:34:01;10.23;;;1.90;;
16440;SDS011;8330;-33.858;151.184;2023-04-26T03:36:33;5.63;;;1.50;;
16440;SDS011;8330;-33.858;151.184;2023-04-26T03:39:04;9.77;;;1.80;;
16440;SDS011;8330;-33.858;151.184;2023-04-26T03:41:37;5.00;;;1.63;;
16440;SDS011;8330;-33.858;151.184;2023-04-26T03:44:08;6.63;;;1.70;;
16440;SDS011;8330;-33.858;151.184;2023-04-26T03:46:39;6.38;;;1.42;;
16440;SDS011;8330;-33.858;151.184;2023-04-26T03:49:11;5.47;;;1.90;;
16440;SDS011;8330;-33.858;151.184;2023-04-26T03:51:44;5.22;;;1.40;;
16440;SDS011;8330;-33.858;151.184;2023-04-26T03:54:15;7.75;;;1.52;;
16440;SDS011;8330;-33.858;151.184;2023-04-26T03:56:49;5.35;;;1.55;;
16440;SDS011;8330;-33.858;151.184;2023-04-26T03:59:20;5.43;;;1.42;;
16440;SDS011;8330;-33.858;151.184;2023-04-26T04:01:52;7.50;;;1.88;;
16440;SDS011;8330;-33.858;151.184;2023-04-26T04:04:23;3.72;;;1.40;;
16440;SDS011;8330;-33.858;151.184;2023-04-26T04:06:54;3.50;;;1.10;;
16440;SDS011;8330;-33.858;151.184;2023-04-26T04:09:26;6.38;;;1.58;;
16440;SDS011;8330;-33.858;151.184;2023-04-26T04:12:00;4.50;;;1.20;;
16440;SDS011;8330;-33.858;151.184;2023-04-26T04:14:31;4.57;;;1.20;;
16440;SDS011;8330;-33.858;151.184;2023-04-26T04:17:02;6.45;;;1.63;;
16440;SDS011;8330;-33.858;151.184;2023-04-26T04:19:33;6.05;;;1.50;;
16440;SDS011;8330;-33.858;151.184;2023-04-26T04:22:05;5.20;;;1.38;;
16440;SDS011;8330;-33.858;151.184;2023-04-26T04:24:36;4.07;;;1.13;;
16440;SDS011;8330;-33.858;151.184;2023-04-26T04:27:09;5.63;;;1.27;;
16440;SDS011;8330;-33.858;151.184;2023-04-26T04:29:41;4.80;;;1.17;;
16440;SDS011;8330;-33.858;151.184;2023-04-26T04:32:12;4.20;;;1.25;;
16440;SDS011;8330;-33.858;151.184;2023-04-26T04:34:44;4.05;;;1.02;;
16440;SDS011;8330;-33.858;151.184;2023-04-26T04:37:15;5.25;;;1.05;;
16440;SDS011;8330;-33.858;151.184;2023-04-26T04:39:46;7.65;;;1.13;;
16440;SDS011;8330;-33.858;151.184;2023-04-26T04:42:19;7.07;;;1.40;;
16440;SDS011;8330;-33.858;151.184;2023-04-26T04:44:52;5.55;;;1.30;;
16440;SDS011;8330;-33.858;151.184;2023-04-26T04:47:24;4.72;;;1.20;;
16440;SDS011;8330;-33.858;151.184;2023-04-26T04:49:57;6.13;;;1.35;;
16440;SDS011;8330;-33.858;151.184;2023-04-26T04:52:28;6.50;;;1.70;;
16440;SDS011;8330;-33.858;151.184;2023-04-26T04:55:00;5.50;;;1.27;;
16440;SDS011;8330;-33.858;151.184;2023-04-26T04:57:33;5.15;;;1.60;;
16440;SDS011;8330;-33.858;151.184;2023-04-26T05:00:05;7.45;;;1.40;;
16440;SDS011;8330;-33.858;151.184;2023-04-26T05:02:38;6.43;;;1.30;;
16440;SDS011;8330;-33.858;151.184;2023-04-26T05:05:09;6.43;;;1.55;;
16440;SDS011;8330;-33.858;151.184;2023-04-26T05:07:40;7.65;;;1.33;;
16440;SDS011;8330;-33.858;151.184;2023-04-26T05:10:12;5.38;;;1.40;;
16440;SDS011;8330;-33.858;151.184;2023-04-26T05:12:48;5.55;;;1.60;;
16440;SDS011;8330;-33.858;151.184;2023-04-26T05:15:21;4.28;;;1.38;;
16440;SDS011;8330;-33.858;151.184;2023-04-26T05:17:52;4.97;;;1.35;;
16440;SDS011;8330;-33.858;151.184;2023-04-26T05:20:24;6.28;;;1.45;;
16440;SDS011;8330;-33.858;151.184;2023-04-26T05:22:56;5.03;;;1.30;;
16440;SDS011;8330;-33.858;151.184;2023-04-26T05:25:27;4.82;;;1.20;;
16440;SDS011;8330;-33.858;151.184;2023-04-26T05:28:00;4.40;;;1.38;;
16440;SDS011;8330;-33.858;151.184;2023-04-26T05:30:31;6.25;;;1.73;;
16440;SDS011;8330;-33.858;151.184;2023-04-26T05:33:02;5.00;;;1.30;;
16440;SDS011;8330;-33.858;151.184;2023-04-26T05:35:34;7.75;;;1.50;;
16440;SDS011;8330;-33.858;151.184;2023-04-26T05:38:05;6.85;;;1.20;;
16440;SDS011;8330;-33.858;151.184;2023-04-26T05:40:36;4.72;;;1.10;;
16440;SDS011;8330;-33.858;151.184;2023-04-26T05:43:09;6.55;;;1.25;;
16440;SDS011;8330;-33.858;151.184;2023-04-26T05:45:40;5.80;;;1.20;;
16440;SDS011;8330;-33.858;151.184;2023-04-26T05:48:20;5.63;;;1.35;;
16440;SDS011;8330;-33.858;151.184;2023-04-26T05:50:51;5.80;;;1.23;;
16440;SDS011;8330;-33.858;151.184;2023-04-26T05:53:22;5.65;;;1.40;;
16440;SDS011;8330;-33.858;151.184;2023-04-26T05:55:53;8.13;;;1.17;;
16440;SDS011;8330;-33.858;151.184;2023-04-26T05:58:26;8.07;;;1.50;;
16440;SDS011;8330;-33.858;151.184;2023-04-26T06:00:59;6.90;;;1.30;;
16440;SDS011;8330;-33.858;151.184;2023-04-26T06:03:30;6.40;;;1.38;;
16440;SDS011;8330;-33.858;151.184;2023-04-26T06:06:01;3.72;;;1.08;;
16440;SDS011;8330;-33.858;151.184;2023-04-26T06:08:33;5.90;;;1.38;;
16440;SDS011;8330;-33.858;151.184;2023-04-26T06:11:04;5.30;;;1.20;;
16440;SDS011;8330;-33.858;151.184;2023-04-26T06:13:37;7.28;;;1.70;;
16440;SDS011;8330;-33.858;151.184;2023-04-26T06:16:08;8.32;;;1.45;;
16440;SDS011;8330;-33.858;151.184;2023-04-26T06:18:39;9.00;;;1.50;;
16440;SDS011;8330;-33.858;151.184;2023-04-26T06:21:10;7.00;;;1.35;;
16440;SDS011;8330;-33.858;151.184;2023-04-26T06:23:41;8.48;;;1.45;;
16440;SDS011;8330;-33.858;151.184;2023-04-26T06:26:12;6.18;;;1.15;;
16440;SDS011;8330;-33.858;151.184;2023-04-26T06:28:45;5.60;;;1.20;;
16440;SDS011;8330;-33.858;151.184;2023-04-26T06:31:16;5.22;;;1.08;;
16440;SDS011;8330;-33.858;151.184;2023-04-26T06:33:48;5.78;;;1.20;;
16440;SDS011;8330;-33.858;151.184;2023-04-26T06:36:19;3.03;;;0.90;;
16440;SDS011;8330;-33.858;151.184;2023-04-26T06:38:50;4.10;;;1.00;;
16440;SDS011;8330;-33.858;151.184;2023-04-26T06:41:21;4.25;;;1.17;;
16440;SDS011;8330;-33.858;151.184;2023-04-26T06:43:54;4.38;;;1.17;;
16440;SDS011;8330;-33.858;151.184;2023-04-26T06:46:25;3.92;;;1.30;;
16440;SDS011;8330;-33.858;151.184;2023-04-26T06:48:56;6.00;;;1.30;;
16440;SDS011;8330;-33.858;151.184;2023-04-26T06:51:27;4.35;;;1.10;;
16440;SDS011;8330;-33.858;151.184;2023-04-26T06:53:58;4.88;;;1.20;;
16440;SDS011;8330;-33.858;151.184;2023-04-26T06:56:29;5.15;;;1.20;;
16440;SDS011;8330;-33.858;151.184;2023-04-26T06:59:02;5.22;;;1.27;;
16440;SDS011;8330;-33.858;151.184;2023-04-26T07:01:34;5.78;;;1.33;;
16440;SDS011;8330;-33.858;151.184;2023-04-26T07:04:05;5.70;;;1.33;;
16440;SDS011;8330;-33.858;151.184;2023-04-26T07:06:36;6.38;;;1.17;;
16440;SDS011;8330;-33.858;151.184;2023-04-26T07:09:08;5.47;;;1.23;;
16440;SDS011;8330;-33.858;151.184;2023-04-26T07:11:39;7.47;;;1.48;;
16440;SDS011;8330;-33.858;151.184;2023-04-26T07:14:12;4.85;;;1.33;;
16440;SDS011;8330;-33.858;151.184;2023-04-26T07:16:44;7.35;;;1.30;;
16440;SDS011;8330;-33.858;151.184;2023-04-26T07:19:15;3.63;;;1.30;;
16440;SDS011;8330;-33.858;151.184;2023-04-26T07:21:46;4.68;;;1.15;;
16440;SDS011;8330;-33.858;151.184;2023-04-26T07:24:17;6.70;;;1.50;;
16440;SDS011;8330;-33.858;151.184;2023-04-26T07:26:48;7.13;;;1.20;;
16440;SDS011;8330;-33.858;151.184;2023-04-26T07:29:21;5.18;;;1.10;;
16440;SDS011;8330;-33.858;151.184;2023-04-26T07:31:52;4.75;;;1.17;;
16440;SDS011;8330;-33.858;151.184;2023-04-26T07:34:24;4.80;;;1.38;;
16440;SDS011;8330;-33.858;151.184;2023-04-26T07:36:57;6.20;;;1.40;;
16440;SDS011;8330;-33.858;151.184;2023-04-26T07:39:28;7.47;;;1.33;;
16440;SDS011;8330;-33.858;151.184;2023-04-26T07:41:59;5.45;;;1.20;;
16440;SDS011;8330;-33.858;151.184;2023-04-26T07:44:32;6.18;;;1.30;;
16440;SDS011;8330;-33.858;151.184;2023-04-26T07:47:03;4.47;;;1.20;;
16440;SDS011;8330;-33.858;151.184;2023-04-26T07:49:39;4.05;;;1.10;;
16440;SDS011;8330;-33.858;151.184;2023-04-26T07:52:10;5.05;;;1.10;;
16440;SDS011;8330;-33.858;151.184;2023-04-26T07:54:41;5.43;;;1.33;;
16440;SDS011;8330;-33.858;151.184;2023-04-26T07:57:15;4.82;;;1.30;;
16440;SDS011;8330;-33.858;151.184;2023-04-26T07:59:48;5.07;;;1.30;;
16440;SDS011;8330;-33.858;151.184;2023-04-26T08:02:19;5.68;;;1.30;;
16440;SDS011;8330;-33.858;151.184;2023-04-26T08:04:50;6.70;;;1.45;;
16440;SDS011;8330;-33.858;151.184;2023-04-26T08:07:22;6.75;;;1.45;;
16440;SDS011;8330;-33.858;151.184;2023-04-26T08:09:53;5.95;;;1.20;;
16440;SDS011;8330;-33.858;151.184;2023-04-26T08:12:25;3.70;;;1.10;;
16440;SDS011;8330;-33.858;151.184;2023-04-26T08:14:58;3.35;;;1.30;;
16440;SDS011;8330;-33.858;151.184;2023-04-26T08:17:30;5.57;;;1.33;;
16440;SDS011;8330;-33.858;151.184;2023-04-26T08:20:01;3.47;;;1.30;;
16440;SDS011;8330;-33.858;151.184;2023-04-26T08:22:34;3.75;;;1.15;;
16440;SDS011;8330;-33.858;151.184;2023-04-26T08:25:06;8.55;;;1.45;;
16440;SDS011;8330;-33.858;151.184;2023-04-26T08:27:37;5.63;;;1.50;;
16440;SDS011;8330;-33.858;151.184;2023-04-26T08:30:12;5.50;;;1.38;;
16440;SDS011;8330;-33.858;151.184;2023-04-26T08:32:43;5.25;;;1.00;;
16440;SDS011;8330;-33.858;151.184;2023-04-26T08:35:14;8.63;;;1.25;;
16440;SDS011;8330;-33.858;151.184;2023-04-26T08:37:45;5.63;;;1.42;;
16440;SDS011;8330;-33.858;151.184;2023-04-26T08:40:18;4.88;;;1.20;;
16440;SDS011;8330;-33.858;151.184;2023-04-26T08:42:52;3.70;;;1.10;;
16440;SDS011;8330;-33.858;151.184;2023-04-26T08:45:26;6.53;;;1.63;;
16440;SDS011;8330;-33.858;151.184;2023-04-26T08:48:00;6.22;;;2.00;;
16440;SDS011;8330;-33.858;151.184;2023-04-26T08:50:36;4.35;;;1.42;;
16440;SDS011;8330;-33.858;151.184;2023-04-26T08:53:08;7.43;;;1.27;;
16440;SDS011;8330;-33.858;151.184;2023-04-26T08:55:46;4.95;;;1.33;;
16440;SDS011;8330;-33.858;151.184;2023-04-26T08:58:18;4.57;;;1.35;;
16440;SDS011;8330;-33.858;151.184;2023-04-26T09:00:51;3.55;;;1.00;;
16440;SDS011;8330;-33.858;151.184;2023-04-26T09:03:23;7.82;;;1.48;;
16440;SDS011;8330;-33.858;151.184;2023-04-26T09:05:54;5.88;;;1.88;;
16440;SDS011;8330;-33.858;151.184;2023-04-26T09:08:25;5.45;;;1.27;;
16440;SDS011;8330;-33.858;151.184;2023-04-26T09:10:57;5.70;;;1.17;;
16440;SDS011;8330;-33.858;151.184;2023-04-26T09:13:28;6.30;;;1.27;;
16440;SDS011;8330;-33.858;151.184;2023-04-26T09:16:01;4.88;;;1.05;;
16440;SDS011;8330;-33.858;151.184;2023-04-26T09:18:32;5.35;;;1.17;;
16440;SDS011;8330;-33.858;151.184;2023-04-26T09:21:03;7.43;;;1.30;;
16440;SDS011;8330;-33.858;151.184;2023-04-26T09:23:35;7.07;;;1.30;;
16440;SDS011;8330;-33.858;151.184;2023-04-26T09:26:29;6.35;;;1.10;;
16440;SDS011;8330;-33.858;151.184;2023-04-26T09:29:13;5.40;;;1.30;;
16440;SDS011;8330;-33.858;151.184;2023-04-26T09:31:48;4.00;;;1.20;;
16440;SDS011;8330;-33.858;151.184;2023-04-26T09:34:19;4.68;;;1.30;;
16440;SDS011;8330;-33.858;151.184;2023-04-26T09:36:50;7.72;;;1.15;;
16440;SDS011;8330;-33.858;151.184;2023-04-26T09:39:31;7.82;;;1.63;;
16440;SDS011;8330;-33.858;151.184;2023-04-26T09:42:03;6.22;;;1.40;;
16440;SDS011;8330;-33.858;151.184;2023-04-26T09:44:34;6.15;;;1.25;;
16440;SDS011;8330;-33.858;151.184;2023-04-26T09:47:08;4.57;;;1.20;;
16440;SDS011;8330;-33.858;151.184;2023-04-26T09:49:46;3.53;;;1.20;;
16440;SDS011;8330;-33.858;151.184;2023-04-26T09:52:17;4.53;;;1.08;;
16440;SDS011;8330;-33.858;151.184;2023-04-26T09:54:49;5.68;;;1.30;;
16440;SDS011;8330;-33.858;151.184;2023-04-26T09:57:21;10.98;;;1.42;;
16440;SDS011;8330;-33.858;151.184;2023-04-26T09:59:52;6.15;;;1.30;;
16440;SDS011;8330;-33.858;151.184;2023-04-26T10:02:28;5.75;;;1.50;;
16440;SDS011;8330;-33.858;151.184;2023-04-26T10:04:59;5.60;;;1.58;;
16440;SDS011;8330;-33.858;151.184;2023-04-26T10:07:31;5.50;;;1.38;;
16440;SDS011;8330;-33.858;151.184;2023-04-26T10:10:03;7.65;;;1.20;;
16440;SDS011;8330;-33.858;151.184;2023-04-26T10:12:35;3.55;;;1.20;;
16440;SDS011;8330;-33.858;151.184;2023-04-26T10:15:07;5.68;;;1.08;;
16440;SDS011;8330;-33.858;151.184;2023-04-26T10:17:41;5.55;;;1.23;;
16440;SDS011;8330;-33.858;151.184;2023-04-26T10:20:13;5.70;;;1.65;;
16440;SDS011;8330;-33.858;151.184;2023-04-26T10:22:49;6.75;;;1.55;;
16440;SDS011;8330;-33.858;151.184;2023-04-26T10:25:35;8.95;;;1.50;;
16440;SDS011;8330;-33.858;151.184;2023-04-26T10:28:07;5.03;;;1.17;;
16440;SDS011;8330;-33.858;151.184;2023-04-26T10:30:54;5.53;;;1.10;;
16440;SDS011;8330;-33.858;151.184;2023-04-26T10:33:28;5.03;;;1.00;;
16440;SDS011;8330;-33.858;151.184;2023-04-26T10:36:00;7.28;;;1.30;;
16440;SDS011;8330;-33.858;151.184;2023-04-26T10:38:38;3.97;;;0.90;;
16440;SDS011;8330;-33.858;151.184;2023-04-26T10:41:29;5.15;;;1.38;;
16440;SDS011;8330;-33.858;151.184;2023-04-26T10:47:22;6.25;;;1.48;;
16440;SDS011;8330;-33.858;151.184;2023-04-26T10:50:06;4.78;;;1.20;;
16440;SDS011;8330;-33.858;151.184;2023-04-26T10:52:38;7.30;;;1.33;;
16440;SDS011;8330;-33.858;151.184;2023-04-26T10:55:38;7.45;;;1.30;;
16440;SDS011;8330;-33.858;151.184;2023-04-26T11:01:03;5.43;;;1.25;;
16440;SDS011;8330;-33.858;151.184;2023-04-26T11:03:36;7.30;;;1.40;;
16440;SDS011;8330;-33.858;151.184;2023-04-26T11:06:11;8.90;;;1.58;;
16440;SDS011;8330;-33.858;151.184;2023-04-26T11:08:43;5.75;;;1.30;;
16440;SDS011;8330;-33.858;151.184;2023-04-26T11:11:16;4.25;;;1.23;;
16440;SDS011;8330;-33.858;151.184;2023-04-26T11:13:47;4.03;;;1.10;;
16440;SDS011;8330;-33.858;151.184;2023-04-26T11:16:18;7.80;;;1.27;;
16440;SDS011;8330;-33.858;151.184;2023-04-26T11:18:52;7.25;;;1.08;;
16440;SDS011;8330;-33.858;151.184;2023-04-26T11:21:26;7.43;;;1.45;;
16440;SDS011;8330;-33.858;151.184;2023-04-26T11:23:57;8.70;;;1.45;;
16440;SDS011;8330;-33.858;151.184;2023-04-26T11:26:31;7.05;;;1.33;;
16440;SDS011;8330;-33.858;151.184;2023-04-26T11:29:02;5.70;;;1.50;;
16440;SDS011;8330;-33.858;151.184;2023-04-26T11:31:38;4.10;;;1.10;;
16440;SDS011;8330;-33.858;151.184;2023-04-26T11:34:09;4.90;;;0.90;;
16440;SDS011;8330;-33.858;151.184;2023-04-26T11:36:44;3.75;;;0.85;;
16440;SDS011;8330;-33.858;151.184;2023-04-26T11:39:15;4.18;;;1.08;;
16440;SDS011;8330;-33.858;151.184;2023-04-26T11:41:48;6.82;;;1.50;;
16440;SDS011;8330;-33.858;151.184;2023-04-26T11:44:19;4.72;;;1.20;;
16440;SDS011;8330;-33.858;151.184;2023-04-26T11:46:50;5.07;;;1.20;;
16440;SDS011;8330;-33.858;151.184;2023-04-26T11:49:22;4.90;;;1.15;;
16440;SDS011;8330;-33.858;151.184;2023-04-26T11:51:55;5.68;;;1.30;;
16440;SDS011;8330;-33.858;151.184;2023-04-26T11:54:27;2.40;;;0.77;;
16440;SDS011;8330;-33.858;151.184;2023-04-26T11:56:58;4.00;;;1.00;;
16440;SDS011;8330;-33.858;151.184;2023-04-26T11:59:30;3.42;;;0.90;;
16440;SDS011;8330;-33.858;151.184;2023-04-26T12:02:04;5.93;;;1.20;;
16440;SDS011;8330;-33.858;151.184;2023-04-26T12:04:36;5.40;;;1.05;;
16440;SDS011;8330;-33.858;151.184;2023-04-26T12:07:11;3.88;;;1.10;;
16440;SDS011;8330;-33.858;151.184;2023-04-26T12:09:48;3.33;;;0.80;;
16440;SDS011;8330;-33.858;151.184;2023-04-26T12:12:19;6.30;;;1.13;;
16440;SDS011;8330;-33.858;151.184;2023-04-26T12:14:53;4.47;;;0.90;;
16440;SDS011;8330;-33.858;151.184;2023-04-26T12:17:24;5.95;;;1.02;;
16440;SDS011;8330;-33.858;151.184;2023-04-26T12:19:57;4.78;;;1.20;;
16440;SDS011;8330;-33.858;151.184;2023-04-26T12:22:38;4.47;;;0.90;;
16440;SDS011;8330;-33.858;151.184;2023-04-26T12:25:09;5.80;;;1.10;;
16440;SDS011;8330;-33.858;151.184;2023-04-26T12:27:41;4.03;;;1.10;;
16440;SDS011;8330;-33.858;151.184;2023-04-26T12:30:12;6.30;;;0.98;;
16440;SDS011;8330;-33.858;151.184;2023-04-26T12:32:43;7.50;;;1.17;;
16440;SDS011;8330;-33.858;151.184;2023-04-26T12:35:14;5.35;;;1.10;;
16440;SDS011;8330;-33.858;151.184;2023-04-26T12:37:48;5.05;;;0.98;;
16440;SDS011;8330;-33.858;151.184;2023-04-26T12:40:19;5.70;;;1.30;;
16440;SDS011;8330;-33.858;151.184;2023-04-26T12:42:51;6.38;;;1.15;;
16440;SDS011;8330;-33.858;151.184;2023-04-26T12:45:22;3.58;;;0.90;;
16440;SDS011;8330;-33.858;151.184;2023-04-26T12:47:54;3.67;;;0.80;;
16440;SDS011;8330;-33.858;151.184;2023-04-26T12:50:25;4.28;;;0.93;;
16440;SDS011;8330;-33.858;151.184;2023-04-26T12:52:58;4.07;;;1.10;;
16440;SDS011;8330;-33.858;151.184;2023-04-26T12:55:30;6.85;;;1.05;;
16440;SDS011;8330;-33.858;151.184;2023-04-26T12:58:01;3.67;;;0.80;;
16440;SDS011;8330;-33.858;151.184;2023-04-26T13:00:32;5.22;;;0.98;;
16440;SDS011;8330;-33.858;151.184;2023-04-26T13:03:03;5.72;;;1.20;;
16440;SDS011;8330;-33.858;151.184;2023-04-26T13:05:37;4.00;;;0.98;;
16440;SDS011;8330;-33.858;151.184;2023-04-26T13:08:10;6.18;;;1.00;;
16440;SDS011;8330;-33.858;151.184;2023-04-26T13:10:41;3.55;;;1.10;;
16440;SDS011;8330;-33.858;151.184;2023-04-26T13:13:12;5.88;;;1.27;;
16440;SDS011;8330;-33.858;151.184;2023-04-26T13:15:45;6.85;;;1.45;;
16440;SDS011;8330;-33.858;151.184;2023-04-26T13:18:17;4.45;;;0.90;;
16440;SDS011;8330;-33.858;151.184;2023-04-26T13:20:48;3.40;;;1.00;;
16440;SDS011;8330;-33.858;151.184;2023-04-26T13:23:21;5.80;;;1.00;;
16440;SDS011;8330;-33.858;151.184;2023-04-26T13:25:52;5.80;;;1.00;;
16440;SDS011;8330;-33.858;151.184;2023-04-26T13:28:23;2.85;;;0.73;;
16440;SDS011;8330;-33.858;151.184;2023-04-26T13:30:54;4.45;;;1.10;;
16440;SDS011;8330;-33.858;151.184;2023-04-26T13:33:25;5.82;;;1.20;;
16440;SDS011;8330;-33.858;151.184;2023-04-26T13:35:57;3.72;;;1.00;;
16440;SDS011;8330;-33.858;151.184;2023-04-26T13:38:30;3.97;;;0.85;;
16440;SDS011;8330;-33.858;151.184;2023-04-26T13:41:02;4.05;;;0.88;;
16440;SDS011;8330;-33.858;151.184;2023-04-26T13:43:33;3.33;;;1.08;;
16440;SDS011;8330;-33.858;151.184;2023-04-26T13:46:04;4.07;;;1.00;;
16440;SDS011;8330;-33.858;151.184;2023-04-26T13:48:35;2.85;;;0.90;;
16440;SDS011;8330;-33.858;151.184;2023-04-26T13:51:06;3.25;;;0.88;;
16440;SDS011;8330;-33.858;151.184;2023-04-26T13:53:40;2.78;;;0.80;;
16440;SDS011;8330;-33.858;151.184;2023-04-26T13:56:14;3.85;;;0.98;;
16440;SDS011;8330;-33.858;151.184;2023-04-26T13:58:46;4.55;;;1.00;;
16440;SDS011;8330;-33.858;151.184;2023-04-26T14:01:17;2.55;;;0.70;;
16440;SDS011;8330;-33.858;151.184;2023-04-26T14:03:48;1.80;;;0.73;;
16440;SDS011;8330;-33.858;151.184;2023-04-26T14:06:19;3.00;;;0.80;;
16440;SDS011;8330;-33.858;151.184;2023-04-26T14:08:52;4.38;;;1.10;;
16440;SDS011;8330;-33.858;151.184;2023-04-26T14:11:23;2.90;;;0.80;;
16440;SDS011;8330;-33.858;151.184;2023-04-26T14:13:54;3.90;;;0.95;;
16440;SDS011;8330;-33.858;151.184;2023-04-26T14:16:26;7.55;;;1.00;;
16440;SDS011;8330;-33.858;151.184;2023-04-26T14:18:57;2.67;;;0.80;;
16440;SDS011;8330;-33.858;151.184;2023-04-26T14:21:28;3.55;;;0.90;;
16440;SDS011;8330;-33.858;151.184;2023-04-26T14:24:01;5.07;;;0.82;;
16440;SDS011;8330;-33.858;151.184;2023-04-26T14:26:32;3.63;;;0.85;;
16440;SDS011;8330;-33.858;151.184;2023-04-26T14:29:03;5.85;;;1.13;;
16440;SDS011;8330;-33.858;151.184;2023-04-26T14:31:34;2.60;;;0.70;;
16440;SDS011;8330;-33.858;151.184;2023-04-26T14:34:05;2.80;;;0.70;;
16440;SDS011;8330;-33.858;151.184;2023-04-26T14:36:36;5.03;;;0.93;;
16440;SDS011;8330;-33.858;151.184;2023-04-26T14:39:09;2.35;;;0.57;;
16440;SDS011;8330;-33.858;151.184;2023-04-26T14:41:40;3.20;;;0.80;;
16440;SDS011;8330;-33.858;151.184;2023-04-26T14:44:11;6.35;;;1.20;;
16440;SDS011;8330;-33.858;151.184;2023-04-26T14:46:42;3.15;;;0.80;;
16440;SDS011;8330;-33.858;151.184;2023-04-26T14:49:14;4.60;;;0.95;;
16440;SDS011;8330;-33.858;151.184;2023-04-26T14:51:45;4.30;;;0.80;;
16440;SDS011;8330;-33.858;151.184;2023-04-26T14:54:18;4.57;;;0.80;;
16440;SDS011;8330;-33.858;151.184;2023-04-26T14:56:49;4.07;;;0.80;;